Marine Blue — 3ECO4 — position and weather

sailwx.info

Track history (hours):
 
Tides and Currents Weather Stations Pressure Air Temp Water Temp Dewpoint Dewpoint Depression Visibility Wind Speed Wind Dir Waves Ship Positions

Marine Blue

Last reported at 2015-Jul-14 11:33 UTC. Time now 2015-Jul-31 21:31 UTC.
Position N 33°51' E 130°14'.
Warning: this ship's position is 17 days out of date.

Length 125 m; draft 6.7 m.

Type: Cargo ship. MMSI: 371414000.

Date/timePositionNaut miles runAvg speedWind from/ knotsBaromVisibWave heightAir tempDewpointWater temp
2015-Jul-14 11:33N 33°51' E 130°14'1212.0
2015-Jul-14 10:33N 33°39' E 130°18'5 5.5
2015-Jul-14 09:33N 33°37' E 130°24'0 0.0
2015-Jul-14 08:33N 33°37' E 130°24'0 0.0
2015-Jul-14 07:33N 33°37' E 130°24'0 0.0
2015-Jul-14 06:33N 33°37' E 130°24'0 0.0
2015-Jul-14 05:33N 33°37' E 130°24'0 0.0
2015-Jul-14 04:33N 33°37' E 130°24'0 0.0
2015-Jul-14 03:27N 33°37' E 130°24'0 0.0
2015-Jul-14 02:33N 33°37' E 130°24'0 0.0
2015-Jul-14 01:33N 33°37' E 130°24'0 0.0
2015-Jul-14 00:33N 33°37' E 130°24'0 0.0
2015-Jul-13 23:33N 33°37' E 130°24'0 0.0
2015-Jul-13 22:27N 33°37' E 130°24'0 0.0
2015-Jul-13 21:33N 33°37' E 130°24'1 0.5
2015-Jul-13 20:33N 33°37' E 130°24'4 3.7
2015-Jul-13 19:31N 33°38' E 130°19'0 0.1
2015-Jul-13 18:28N 33°38' E 130°19'0 0.1
2015-Jul-13 17:31N 33°38' E 130°19'0 0.1
2015-Jul-13 16:31N 33°38' E 130°19'0 0.0
2015-Jul-13 15:31N 33°38' E 130°19'2 1.6
2015-Jul-13 14:33N 33°39' E 130°18'1010.0
2015-Jul-13 13:33N 33°44' E 130°07'1413.7
2015-Jul-13 12:33N 33°40' E 129°51'  
Track history (hours):
 
Tides and Currents Weather Stations Pressure Air Temp Water Temp Dewpoint Dewpoint Depression Visibility Wind Speed Wind Dir Waves Ship Positions

Marine Blue

Last reported at 2015-Jul-14 11:33 UTC. Time now 2015-Jul-31 21:31 UTC.
Position N 33°51' E 130°14'.
Warning: this ship's position is 17 days out of date.

Length 125 m; draft 6.7 m.

Type: Cargo ship. MMSI: 371414000.

Date/timePositionNaut miles runAvg speedWind from/ knotsBaromVisibWave heightAir tempDewpointWater temp
2015-Jul-14 11:33N 33°51' E 130°14'1212.0
2015-Jul-14 10:33N 33°39' E 130°18'5 5.5
2015-Jul-14 09:33N 33°37' E 130°24'0 0.0
2015-Jul-14 08:33N 33°37' E 130°24'0 0.0
2015-Jul-14 07:33N 33°37' E 130°24'0 0.0
2015-Jul-14 06:33N 33°37' E 130°24'0 0.0
2015-Jul-14 05:33N 33°37' E 130°24'0 0.0
2015-Jul-14 04:33N 33°37' E 130°24'0 0.0
2015-Jul-14 03:27N 33°37' E 130°24'0 0.0
2015-Jul-14 02:33N 33°37' E 130°24'0 0.0
2015-Jul-14 01:33N 33°37' E 130°24'0 0.0
2015-Jul-14 00:33N 33°37' E 130°24'0 0.0
2015-Jul-13 23:33N 33°37' E 130°24'0 0.0
2015-Jul-13 22:27N 33°37' E 130°24'0 0.0
2015-Jul-13 21:33N 33°37' E 130°24'1 0.5
2015-Jul-13 20:33N 33°37' E 130°24'4 3.7
2015-Jul-13 19:31N 33°38' E 130°19'0 0.1
2015-Jul-13 18:28N 33°38' E 130°19'0 0.1
2015-Jul-13 17:31N 33°38' E 130°19'0 0.1
2015-Jul-13 16:31N 33°38' E 130°19'0 0.0
2015-Jul-13 15:31N 33°38' E 130°19'2 1.6
2015-Jul-13 14:33N 33°39' E 130°18'1010.0
2015-Jul-13 13:33N 33°44' E 130°07'1413.7
2015-Jul-13 12:33N 33°40' E 129°51'  

Dump ship's entire track history